Time;durP1;ratioP1;P1;durP2;ratioP2;P2;SDS_P1;SDS_P2;PMS_P1;PMS_P2;Temp;Humidity;BMP_temperature;BMP_pressure;BME280_temperature;BME280_humidity;BME280_pressure;Samples;Min_cycle;Max_cycle;Signal;HPM_P1;HPM_P2
2022/04/13 00:00:37;;;;;;;11.27;6.53;;;;;;;8.80;48.40;101126.47;7398691;19;20015;-66
2022/04/13 00:03:05;;;;;;;8.73;6.22;;;;;;;8.70;48.49;101103.88;7401416;19;20021;-65
2022/04/13 00:05:33;;;;;;;10.30;6.38;;;;;;;8.71;48.47;101116.94;7400672;19;20035;-71
2022/04/13 00:08:06;;;;;;;11.02;6.40;;;;;;;8.67;48.61;101117.84;7401219;19;20031;-70
2022/04/13 00:10:34;;;;;;;11.63;7.88;;;;;;;8.63;48.80;101113.50;7399998;19;20022;-65
2022/04/13 00:13:03;;;;;;;11.77;6.85;;;;;;;8.54;48.82;101103.13;7397977;19;20415;-74
2022/04/13 00:15:31;;;;;;;11.65;7.00;;;;;;;8.55;48.74;101112.69;7401058;19;20026;-70
2022/04/13 00:18:00;;;;;;;9.40;6.90;;;;;;;8.50;48.98;101102.25;7397834;19;20426;-66
2022/04/13 00:20:28;;;;;;;11.05;6.65;;;;;;;8.46;48.98;101101.41;7399736;19;20025;-71
2022/04/13 00:22:57;;;;;;;9.65;6.50;;;;;;;8.45;49.04;101106.63;7400662;19;20031;-69
2022/04/13 00:25:28;;;;;;;10.27;7.35;;;;;;;8.41;49.19;101105.78;7399925;19;20028;-64
2022/04/13 00:27:56;;;;;;;7.93;6.28;;;;;;;8.37;49.14;101101.47;7398031;19;20040;-65
2022/04/13 00:30:24;;;;;;;9.82;6.72;;;;;;;8.35;49.49;101104.97;7397508;19;20404;-64
2022/04/13 00:32:52;;;;;;;9.98;6.55;;;;;;;8.30;49.56;101094.53;7398439;19;20023;-65
2022/04/13 00:35:21;;;;;;;9.85;7.05;;;;;;;8.27;49.58;101099.78;7397833;19;20035;-65
2022/04/13 00:37:49;;;;;;;9.55;6.38;;;;;;;8.22;49.62;101099.81;7400263;19;20039;-66
2022/04/13 00:40:17;;;;;;;13.20;6.68;;;;;;;8.19;49.59;101105.06;7397616;19;20035;-65
2022/04/13 00:42:48;;;;;;;11.23;6.65;;;;;;;8.15;49.87;101106.81;7397155;19;20385;-65
2022/04/13 00:45:22;;;;;;;12.85;7.30;;;;;;;8.13;49.60;101103.34;7400227;19;20022;-65
2022/04/13 00:47:50;;;;;;;10.50;6.75;;;;;;;8.10;49.68;101094.66;7397495;19;20026;-66
2022/04/13 00:50:19;;;;;;;11.63;6.53;;;;;;;8.08;49.90;101101.66;7396980;19;20482;-66
2022/04/13 00:52:50;;;;;;;10.18;6.80;;;;;;;8.04;49.92;101097.28;7399798;19;20035;-66
2022/04/13 00:55:19;;;;;;;10.13;6.50;;;;;;;8.01;50.22;101092.97;7400072;19;20035;-67
2022/04/13 00:57:51;;;;;;;10.95;6.93;;;;;;;7.98;50.11;101095.59;7397231;19;20027;-66
2022/04/13 01:00:21;;;;;;;11.85;6.72;;;;;;;7.94;50.45;101092.13;7399000;19;20022;-65
2022/04/13 01:02:49;;;;;;;9.95;6.97;;;;;;;7.90;50.18;101082.56;7398259;19;20019;-65
2022/04/13 01:05:18;;;;;;;10.02;6.80;;;;;;;7.88;50.33;101089.53;7396711;19;20024;-65
2022/04/13 01:07:47;;;;;;;8.77;6.95;;;;;;;7.84;50.24;101085.22;7396756;19;20022;-65
2022/04/13 01:10:15;;;;;;;10.90;7.50;;;;;;;7.83;50.33;101086.09;7398341;19;20031;-65
2022/04/13 01:12:43;;;;;;;9.32;6.65;;;;;;;7.79;50.60;101087.00;7399068;19;20411;-65
2022/04/13 01:15:14;;;;;;;11.05;7.20;;;;;;;7.77;50.52;101093.94;7398331;19;20039;-66
2022/04/13 01:17:43;;;;;;;10.90;6.90;;;;;;;7.75;50.23;101098.34;7399372;19;20023;-65
2022/04/13 01:20:13;;;;;;;11.77;6.82;;;;;;;7.73;50.60;101105.28;7398074;19;20086;-65
2022/04/13 01:22:47;;;;;;;12.25;6.80;;;;;;;7.71;50.57;101104.41;7398823;19;20010;-65
2022/04/13 01:25:15;;;;;;;8.35;6.55;;;;;;;7.69;50.64;101112.28;7399184;19;20039;-65
2022/04/13 01:27:43;;;;;;;12.93;7.00;;;;;;;7.64;50.71;101107.06;7396536;19;20035;-65
2022/04/13 01:30:13;;;;;;;9.82;6.78;;;;;;;7.62;50.70;101107.94;7397349;19;20535;-65
2022/04/13 01:32:42;;;;;;;10.85;6.78;;;;;;;7.58;50.88;101104.50;7396056;19;20011;-65
2022/04/13 01:35:10;;;;;;;10.32;7.18;;;;;;;7.56;50.85;101106.22;7398379;19;20035;-66
2022/04/13 01:37:38;;;;;;;11.82;7.50;;;;;;;7.53;51.03;101105.38;7395790;19;20506;-65
2022/04/13 01:40:10;;;;;;;13.60;7.72;;;;;;;7.50;51.33;101106.25;7397552;19;20031;-65
2022/04/13 01:42:38;;;;;;;10.00;7.50;;;;;;;7.46;51.24;101100.16;7398381;19;20035;-65
2022/04/13 01:45:08;;;;;;;13.15;7.75;;;;;;;7.44;51.35;101091.50;7395987;19;20028;-65
2022/04/13 01:47:43;;;;;;;10.65;6.55;;;;;;;7.42;51.62;101100.16;7396146;19;20014;-65
2022/04/13 01:50:11;;;;;;;12.02;7.60;;;;;;;7.38;51.50;101088.00;7396936;19;20486;-66
2022/04/13 01:52:39;;;;;;;12.45;7.70;;;;;;;7.36;51.77;101095.00;7398235;19;20014;-65
2022/04/13 01:55:11;;;;;;;12.98;7.95;;;;;;;7.32;51.69;101097.59;7399339;19;20022;-65
2022/04/13 01:57:41;;;;;;;9.25;7.22;;;;;;;7.29;51.74;101097.63;7398316;19;20031;-65
2022/04/13 02:00:12;;;;;;;12.70;7.15;;;;;;;7.26;51.64;101096.75;7396611;19;20482;-65
2022/04/13 02:02:40;;;;;;;9.93;6.63;;;;;;;7.22;51.70;101098.50;7397196;19;20443;-65
2022/04/13 02:05:09;;;;;;;13.07;7.90;;;;;;;7.20;51.97;101096.75;7397534;19;20014;-65
2022/04/13 02:07:38;;;;;;;9.80;7.05;;;;;;;7.17;51.81;101097.63;7395290;19;20044;-65
2022/04/13 02:10:09;;;;;;;10.48;7.68;;;;;;;7.14;52.13;101095.00;7396644;19;20026;-65
2022/04/13 02:12:41;;;;;;;11.63;7.68;;;;;;;7.10;52.19;101088.97;7397109;19;20035;-65
2022/04/13 02:15:11;;;;;;;13.20;7.10;;;;;;;7.08;52.31;101088.09;7396794;19;20554;-65
2022/04/13 02:17:39;;;;;;;10.38;7.45;;;;;;;7.05;52.21;101090.72;7396984;19;20026;-65
2022/04/13 02:20:09;;;;;;;12.60;7.38;;;;;;;7.03;52.52;101091.56;7396166;19;20014;-64
2022/04/13 02:22:37;;;;;;;10.63;7.55;;;;;;;6.99;52.42;101090.72;7396758;19;20014;-65
2022/04/13 02:25:06;;;;;;;10.38;7.80;;;;;;;6.96;52.56;101085.50;7397121;19;20022;-65
2022/04/13 02:27:35;;;;;;;11.00;6.82;;;;;;;6.94;52.69;101084.63;7394736;19;20023;-65
2022/04/13 02:30:07;;;;;;;12.07;7.32;;;;;;;6.90;52.76;101091.59;7394640;19;20020;-66
2022/04/13 02:32:39;;;;;;;11.02;7.97;;;;;;;6.86;52.83;101082.00;7395129;19;20028;-65
2022/04/13 02:35:09;;;;;;;11.57;7.03;;;;;;;6.82;52.92;101083.78;7394723;19;20014;-65
2022/04/13 02:37:38;;;;;;;10.13;7.32;;;;;;;6.81;52.97;101086.38;7394091;19;20022;-65
2022/04/13 02:40:09;;;;;;;10.88;7.35;;;;;;;6.78;53.04;101084.63;7395574;19;20023;-64
2022/04/13 02:42:38;;;;;;;10.68;7.57;;;;;;;6.76;53.15;101075.06;7394929;19;20043;-65
2022/04/13 02:45:10;;;;;;;13.35;7.88;;;;;;;6.73;53.08;101082.91;7394708;19;20017;-65
2022/04/13 02:47:38;;;;;;;11.07;6.78;;;;;;;6.69;53.31;101080.28;7394181;19;20036;-65
2022/04/13 02:50:08;;;;;;;10.85;7.82;;;;;;;6.65;53.59;101083.78;7394148;19;20018;-65
2022/04/13 02:52:36;;;;;;;12.32;7.20;;;;;;;6.63;53.45;101080.28;7395337;19;20374;-65
2022/04/13 02:55:05;;;;;;;11.48;8.63;;;;;;;6.58;53.67;101079.41;7393661;19;20478;-65
2022/04/13 02:57:33;;;;;;;11.52;7.13;;;;;;;6.57;53.70;101082.91;7395112;19;20495;-66
2022/04/13 03:00:01;;;;;;;12.32;7.88;;;;;;;6.49;53.83;101076.81;7393433;19;20434;-66
2022/04/13 03:02:32;;;;;;;11.15;7.35;;;;;;;6.50;53.92;101079.41;7395484;19;20027;-66
2022/04/13 03:05:00;;;;;;;12.57;7.50;;;;;;;6.47;54.00;101070.72;7395672;19;20031;-66
2022/04/13 03:07:30;;;;;;;12.25;8.35;;;;;;;6.44;54.33;101078.56;7394292;19;20019;-66
2022/04/13 03:09:58;;;;;;;15.55;8.35;;;;;;;6.40;54.31;101066.41;7394833;19;20055;-66
2022/04/13 03:12:26;;;;;;;12.73;8.35;;;;;;;6.33;54.58;101060.28;7393517;19;20015;-65
2022/04/13 03:14:54;;;;;;;9.98;8.15;;;;;;;6.34;54.66;101069.84;7393269;19;20416;-66
2022/04/13 03:17:23;;;;;;;11.48;8.00;;;;;;;6.31;54.75;101068.13;7395123;19;20023;-66
2022/04/13 03:19:53;;;;;;;12.68;8.15;;;;;;;6.28;55.25;101067.22;7393270;19;20082;-64
2022/04/13 03:22:24;;;;;;;15.40;8.73;;;;;;;6.25;54.73;101072.47;7395452;19;20015;-65
2022/04/13 03:24:53;;;;;;;12.02;8.20;;;;;;;6.22;54.98;101065.50;7394998;19;20412;-65
2022/04/13 03:27:21;;;;;;;16.02;8.35;;;;;;;6.20;55.19;101064.63;7392862;19;20013;-65
2022/04/13 03:29:50;;;;;;;11.95;8.02;;;;;;;6.18;55.19;101069.84;7394356;19;20040;-65
2022/04/13 03:32:18;;;;;;;11.45;7.85;;;;;;;6.15;55.22;101067.22;7393099;19;20403;-65
2022/04/13 03:34:46;;;;;;;14.35;8.13;;;;;;;6.14;55.47;101064.59;7392710;19;20027;-64
2022/04/13 03:37:17;;;;;;;11.73;7.93;;;;;;;6.09;55.72;101063.75;7394207;19;20031;-65
2022/04/13 03:39:46;;;;;;;21.65;9.52;;;;;;;6.08;55.62;101059.38;7394166;19;20021;-65
2022/04/13 03:42:14;;;;;;;11.75;8.52;;;;;;;6.07;55.52;101068.94;7393782;19;20057;-65
2022/04/13 03:44:42;;;;;;;13.02;8.75;;;;;;;6.06;55.63;101072.41;7393817;19;20019;-66
2022/04/13 03:47:11;;;;;;;13.15;8.48;;;;;;;6.05;55.72;101067.22;7392357;19;20019;-66
2022/04/13 03:49:39;;;;;;;14.45;8.88;;;;;;;6.03;55.81;101069.81;7391509;19;20032;-66
2022/04/13 03:52:07;;;;;;;14.88;8.75;;;;;;;5.98;55.89;101064.59;7391496;19;20032;-65
2022/04/13 03:54:38;;;;;;;13.30;8.48;;;;;;;5.98;56.01;101069.78;7391046;19;20026;-66
2022/04/13 03:57:07;;;;;;;12.68;8.15;;;;;;;5.96;56.04;101073.22;7393440;19;20023;-65
2022/04/13 03:59:35;;;;;;;13.73;9.80;;;;;;;5.94;56.02;101069.75;7392904;19;20512;-65
2022/04/13 04:02:03;;;;;;;13.57;8.95;;;;;;;5.92;56.36;101072.34;7391308;19;20095;-65
2022/04/13 04:04:32;;;;;;;12.60;8.40;;;;;;;5.91;56.37;101082.78;7393450;19;20014;-65
2022/04/13 04:07:00;;;;;;;12.15;7.85;;;;;;;5.89;56.41;101080.16;7392295;19;20010;-65
2022/04/13 04:09:28;;;;;;;12.05;8.77;;;;;;;5.87;56.35;101077.53;7390788;19;20031;-65
2022/04/13 04:11:59;;;;;;;10.60;7.72;;;;;;;5.85;56.40;101081.00;7392510;19;20035;-65
2022/04/13 04:14:27;;;;;;;13.30;8.45;;;;;;;5.85;56.66;101089.69;7391046;19;20103;-65
2022/04/13 04:16:55;;;;;;;14.35;9.25;;;;;;;5.83;56.56;101096.63;7391746;19;20014;-65
2022/04/13 04:19:23;;;;;;;15.13;8.50;;;;;;;5.81;56.74;101089.69;7390877;19;20023;-65
2022/04/13 04:21:51;;;;;;;23.83;10.73;;;;;;;5.79;56.92;101086.22;7390671;19;20048;-66
2022/04/13 04:24:19;;;;;;;14.35;9.75;;;;;;;5.76;57.00;101089.66;7392879;19;20420;-65
2022/04/13 04:26:48;;;;;;;13.25;8.57;;;;;;;5.74;56.94;101094.00;7390042;19;20475;-64
2022/04/13 04:29:18;;;;;;;11.77;8.50;;;;;;;5.70;57.19;101090.50;7390666;19;20023;-64
2022/04/13 04:31:53;;;;;;;13.93;8.90;;;;;;;5.69;57.30;101088.75;7389846;19;20035;-65
2022/04/13 04:34:23;;;;;;;18.75;11.45;;;;;;;5.67;57.44;101095.72;7392322;19;20019;-68
2022/04/13 04:36:51;;;;;;;13.82;9.23;;;;;;;5.67;57.29;101100.94;7392365;19;20423;-64
2022/04/13 04:39:19;;;;;;;15.73;9.75;;;;;;;5.67;57.44;101095.72;7394043;19;20031;-66
2022/04/13 04:41:47;;;;;;;13.60;9.75;;;;;;;5.68;57.48;101096.56;7396804;19;20022;-65
2022/04/13 04:44:18;;;;;;;17.27;9.82;;;;;;;5.67;57.60;101094.84;7399617;19;20031;-66
2022/04/13 04:46:46;;;;;;;14.55;9.68;;;;;;;5.67;57.61;101100.03;7399426;19;20018;-65
2022/04/13 04:49:14;;;;;;;16.33;9.10;;;;;;;5.67;57.62;101097.44;7396544;19;20352;-64
2022/04/13 04:51:42;;;;;;;13.82;9.27;;;;;;;5.67;57.87;101098.31;7397145;19;20022;-64
2022/04/13 04:54:11;;;;;;;12.77;9.15;;;;;;;5.68;57.96;101096.56;7399481;19;20031;-65
2022/04/13 04:56:39;;;;;;;15.05;8.70;;;;;;;5.70;57.97;101095.72;7399156;19;20052;-65
2022/04/13 04:59:07;;;;;;;19.98;10.50;;;;;;;5.71;57.96;101105.28;7396106;19;20026;-65
2022/04/13 05:01:38;;;;;;;18.17;10.95;;;;;;;5.73;58.27;101099.22;7396557;19;20019;-64
2022/04/13 05:04:06;;;;;;;15.50;9.60;;;;;;;5.75;58.16;101100.94;7399410;19;20018;-65
2022/04/13 05:06:35;;;;;;;16.10;9.80;;;;;;;5.78;58.11;101102.69;7398564;19;20035;-65
2022/04/13 05:09:03;;;;;;;16.52;9.77;;;;;;;5.81;58.12;101097.47;7395705;19;20486;-64
2022/04/13 05:11:31;;;;;;;14.68;9.18;;;;;;;5.84;58.01;101100.13;7396453;19;20019;-64
2022/04/13 05:13:59;;;;;;;12.02;8.98;;;;;;;5.87;58.00;101103.56;7395898;19;20398;-64
2022/04/13 05:16:27;;;;;;;15.52;10.07;;;;;;;5.91;58.06;101099.25;7398719;19;20110;-66
2022/04/13 05:18:58;;;;;;;14.30;9.40;;;;;;;5.94;58.14;101101.88;7395655;19;20427;-65
2022/04/13 05:21:26;;;;;;;17.20;9.60;;;;;;;5.97;58.06;101104.47;7395932;19;20514;-65
2022/04/13 05:23:54;;;;;;;14.65;9.05;;;;;;;6.00;58.07;101103.66;7397989;19;20014;-65
2022/04/13 05:26:23;;;;;;;16.48;9.70;;;;;;;6.05;58.25;101101.94;7398281;19;20028;-65
2022/04/13 05:28:51;;;;;;;17.50;9.18;;;;;;;6.11;58.03;101103.69;7395895;19;20023;-65
2022/04/13 05:31:19;;;;;;;14.95;8.85;;;;;;;6.15;58.13;101106.28;7394311;19;20384;-65
2022/04/13 05:33:47;;;;;;;12.90;9.20;;;;;;;6.18;57.84;101106.31;7396480;19;20015;-66
2022/04/13 05:36:18;;;;;;;15.73;10.18;;;;;;;6.24;57.87;101112.41;7395703;19;20046;-66
2022/04/13 05:38:46;;;;;;;19.90;11.65;;;;;;;6.33;57.80;101117.63;7398372;19;20035;-65
2022/04/13 05:41:14;;;;;;;20.20;12.35;;;;;;;6.40;58.11;101113.31;7394769;19;20031;-66
2022/04/13 05:43:42;;;;;;;18.02;12.48;;;;;;;6.46;57.79;101119.38;7397246;19;20036;-64
2022/04/13 05:46:10;;;;;;;16.83;11.65;;;;;;;6.55;57.91;101120.28;7397366;19;20483;-65
2022/04/13 05:48:38;;;;;;;20.27;13.40;;;;;;;6.62;57.76;101120.28;7395632;19;20022;-65
2022/04/13 05:51:13;;;;;;;23.58;12.27;;;;;;;6.68;57.98;101117.69;7394471;19;20035;-64
2022/04/13 05:53:44;;;;;;;15.35;10.00;;;;;;;6.78;57.93;101122.91;7398374;19;20031;-64
2022/04/13 05:56:12;;;;;;;13.73;9.50;;;;;;;6.85;57.89;101125.50;7395841;19;20111;-65
2022/04/13 05:58:40;;;;;;;16.02;10.35;;;;;;;6.92;57.73;101130.72;7395284;19;20440;-64
2022/04/13 06:01:08;;;;;;;18.50;9.20;;;;;;;7.00;57.63;101132.44;7395647;19;20019;-64
2022/04/13 06:03:36;;;;;;;16.52;8.88;;;;;;;7.09;57.59;101133.28;7396752;19;20015;-65
2022/04/13 06:06:05;;;;;;;13.95;9.25;;;;;;;7.17;57.49;101136.78;7393775;19;20494;-65
2022/04/13 06:08:33;;;;;;;15.50;9.77;;;;;;;7.26;57.56;101136.75;7394877;19;20019;-65
2022/04/13 06:11:03;;;;;;;19.25;9.75;;;;;;;7.35;57.21;101141.09;7395033;19;20022;-66
2022/04/13 06:13:32;;;;;;;15.18;9.45;;;;;;;7.43;57.18;101141.06;7396272;19;20036;-66
2022/04/13 06:16:00;;;;;;;14.23;8.80;;;;;;;7.49;57.26;101135.84;7396501;19;20007;-66
2022/04/13 06:18:28;;;;;;;17.45;9.75;;;;;;;7.59;56.94;101141.91;7394471;19;20388;-66
2022/04/13 06:20:56;;;;;;;17.13;9.63;;;;;;;7.68;56.82;101146.25;7395364;19;20018;-66
2022/04/13 06:23:24;;;;;;;17.50;9.80;;;;;;;7.76;56.50;101149.66;7396459;19;20026;-65
2022/04/13 06:25:53;;;;;;;12.63;8.68;;;;;;;7.85;56.64;101157.50;7396308;19;20022;-65
2022/04/13 06:28:23;;;;;;;93.70;52.10;;;;;;;7.92;56.56;101156.59;7395352;19;20010;-66
2022/04/13 06:30:52;;;;;;;43.70;24.27;;;;;;;7.99;56.34;101157.44;7393784;19;20014;-66
2022/04/13 06:33:20;;;;;;;18.50;12.13;;;;;;;8.09;56.35;101156.53;7393097;19;20011;-64
2022/04/13 06:35:48;;;;;;;16.23;10.10;;;;;;;8.17;56.19;101153.00;7394475;19;20019;-65
2022/04/13 06:38:16;;;;;;;23.48;14.18;;;;;;;8.25;56.09;101151.19;7394256;19;20031;-65
2022/04/13 06:40:44;;;;;;;14.98;10.30;;;;;;;8.34;55.84;101152.91;7393814;19;20125;-65
2022/04/13 06:43:12;;;;;;;13.38;8.98;;;;;;;8.41;55.68;101159.84;7395939;19;20474;-64
2022/04/13 06:45:43;;;;;;;14.82;9.05;;;;;;;8.48;55.57;101149.34;7395731;19;20031;-66
2022/04/13 06:48:11;;;;;;;16.05;9.30;;;;;;;8.55;55.57;101158.00;7393464;19;20401;-65
2022/04/13 06:50:39;;;;;;;16.52;9.60;;;;;;;8.64;55.43;101150.13;7395356;19;20105;-66
2022/04/13 06:53:07;;;;;;;14.52;8.68;;;;;;;8.71;55.22;101157.94;7395668;19;20035;-66
2022/04/13 06:55:37;;;;;;;17.00;9.07;;;;;;;8.78;55.12;101156.97;7393415;19;20026;-65
2022/04/13 06:58:06;;;;;;;13.85;9.13;;;;;;;8.85;55.19;101152.59;7395432;19;20022;-66
2022/04/13 07:00:34;;;;;;;16.05;8.65;;;;;;;8.92;54.93;101155.16;7393559;19;20026;-66
2022/04/13 07:03:05;;;;;;;15.70;9.27;;;;;;;9.00;54.84;101151.56;7393935;19;20015;-65
2022/04/13 07:05:33;;;;;;;13.50;8.82;;;;;;;9.07;54.70;101151.53;7393332;19;20022;-65
2022/04/13 07:08:02;;;;;;;12.93;9.05;;;;;;;9.14;54.71;101152.34;7394504;19;20019;-66
2022/04/13 07:10:31;;;;;;;17.23;9.43;;;;;;;9.23;54.58;101151.38;7392777;19;20025;-66
2022/04/13 07:13:01;;;;;;;14.27;9.73;;;;;;;9.31;54.48;101156.53;7392862;19;20022;-65
2022/04/13 07:15:29;;;;;;;13.63;8.82;;;;;;;9.39;54.58;101170.41;7394498;19;20032;-65
2022/04/13 07:17:57;;;;;;;19.00;8.55;;;;;;;9.48;54.17;101164.22;7392896;19;20039;-65
2022/04/13 07:20:28;;;;;;;15.38;8.23;;;;;;;9.56;54.06;101165.00;7391389;19;20026;-65
2022/04/13 07:22:57;;;;;;;13.07;8.75;;;;;;;9.64;53.91;101157.91;7392411;19;20027;-66
2022/04/13 07:25:26;;;;;;;14.85;8.90;;;;;;;9.72;53.52;101170.97;7394094;19;20486;-65
2022/04/13 07:27:54;;;;;;;12.70;8.20;;;;;;;9.81;53.45;101170.84;7392393;19;20032;-65
2022/04/13 07:30:22;;;;;;;12.35;8.73;;;;;;;9.89;53.24;101168.13;7392129;19;20018;-65
2022/04/13 07:32:55;;;;;;;14.77;8.48;;;;;;;9.98;53.18;101169.78;7392474;19;20018;-66
2022/04/13 07:35:23;;;;;;;12.63;7.78;;;;;;;10.05;53.17;101171.44;7394827;19;20015;-65
2022/04/13 07:37:54;;;;;;;14.10;8.95;;;;;;;10.11;53.10;101169.59;7393931;19;20018;-65
2022/04/13 07:40:22;;;;;;;13.27;8.45;;;;;;;10.20;52.81;101173.00;7392216;19;20022;-65
2022/04/13 07:42:51;;;;;;;15.25;8.93;;;;;;;10.28;52.76;101171.97;7390992;19;20019;-65
2022/04/13 07:45:19;;;;;;;13.60;8.27;;;;;;;10.38;52.57;101169.28;7391666;19;20018;-65
2022/04/13 07:47:54;;;;;;;13.57;8.70;;;;;;;10.46;52.39;101166.53;7391991;19;20022;-65
2022/04/13 07:50:22;;;;;;;18.48;9.35;;;;;;;10.55;52.33;101174.28;7392421;19;20023;-65
2022/04/13 07:52:50;;;;;;;14.23;8.65;;;;;;;10.63;52.11;101169.78;7395308;19;20066;-65
2022/04/13 07:55:21;;;;;;;12.48;9.20;;;;;;;10.73;51.91;101168.75;7391798;19;20023;-65
2022/04/13 07:57:49;;;;;;;14.00;8.32;;;;;;;10.82;51.82;101169.50;7393648;19;20019;-66
2022/04/13 08:00:18;;;;;;;12.88;8.68;;;;;;;10.93;51.73;101167.53;7392770;19;20018;-65
2022/04/13 08:02:46;;;;;;;12.90;8.50;;;;;;;11.04;51.34;101172.63;7393473;19;20032;-65
2022/04/13 08:05:15;;;;;;;17.30;7.68;;;;;;;11.14;50.78;101174.22;7393417;19;20018;-66
2022/04/13 08:07:44;;;;;;;14.38;7.68;;;;;;;11.29;49.81;101174.84;7391290;19;20041;-66
2022/04/13 08:10:12;;;;;;;11.85;7.43;;;;;;;11.44;49.33;101179.81;7391282;19;20019;-65
2022/04/13 08:12:46;;;;;;;10.55;6.57;;;;;;;11.58;48.41;101183.03;7393004;19;20039;-65
2022/04/13 08:15:14;;;;;;;;;;;;;;;11.72;46.85;101174.91;7399229;19;20014;-65
2022/04/13 08:17:43;;;;;;;13.55;7.85;;;;;;;11.87;47.77;101173.72;7400557;19;19927;-65
2022/04/13 08:20:14;;;;;;;16.00;7.68;;;;;;;12.00;47.49;101176.16;7399631;19;20026;-65
2022/04/13 08:22:43;;;;;;;14.95;8.60;;;;;;;12.15;47.30;101169.69;7400426;19;20494;-66
2022/04/13 08:25:13;;;;;;;11.98;6.72;;;;;;;12.30;46.66;101165.88;7400488;19;20030;-65
2022/04/13 08:27:43;;;;;;;11.80;6.70;;;;;;;12.44;45.40;101169.03;7399414;19;20043;-65
2022/04/13 08:30:13;;;;;;;11.65;7.20;;;;;;;12.58;45.83;101175.78;7395288;19;20018;-65
2022/04/13 08:32:54;;;;;;;11.02;6.60;;;;;;;12.70;45.40;101173.72;7396091;19;20022;-66
2022/04/13 08:35:22;;;;;;;9.93;6.20;;;;;;;12.84;45.48;101169.91;7400007;19;20023;-65
2022/04/13 08:37:50;;;;;;;10.40;6.65;;;;;;;12.98;44.92;101172.19;7398710;19;20475;-66
2022/04/13 08:40:19;;;;;;;11.40;6.85;;;;;;;13.09;44.70;101164.88;7396657;19;20022;-65
2022/04/13 08:43:06;;;;;;;9.80;6.70;;;;;;;13.24;44.31;101171.50;7397098;19;20018;-65
2022/04/13 08:45:42;;;;;;;10.98;5.95;;;;;;;13.38;43.52;101170.31;7399615;19;20486;-68
2022/04/13 08:48:14;;;;;;;10.57;6.20;;;;;;;13.52;43.55;101173.44;7399852;19;20018;-66
2022/04/13 08:50:46;;;;;;;13.43;6.20;;;;;;;13.63;43.13;101170.50;7397348;19;20022;-64
2022/04/13 08:53:20;;;;;;;10.85;5.55;;;;;;;13.74;43.05;101164.94;7397374;19;20018;-66
2022/04/13 08:55:55;;;;;;;11.18;6.60;;;;;;;13.84;42.44;101156.72;7400642;19;20348;-65
2022/04/13 08:58:33;;;;;;;12.55;6.55;;;;;;;13.95;41.91;101160.81;7397410;19;20106;-64
2022/04/13 09:01:06;;;;;;;11.80;6.43;;;;;;;14.06;41.22;101160.50;7397191;19;20019;-65
2022/04/13 09:03:40;;;;;;;12.68;6.70;;;;;;;14.16;41.25;101162.81;7400057;19;20018;-65
2022/04/13 09:06:09;;;;;;;;;;;;;;;14.25;40.40;101158.19;7398257;19;20019;-65
2022/04/13 09:08:44;;;;;;;10.98;6.00;;;;;;;14.35;41.54;101156.97;7398160;19;19932;-65
2022/04/13 09:11:15;;;;;;;13.95;7.45;;;;;;;14.43;41.39;101147.06;7396357;19;20018;-65
2022/04/13 09:13:46;;;;;;;9.88;6.40;;;;;;;14.51;40.56;101154.72;7398815;19;20018;-66
2022/04/13 09:16:15;;;;;;;11.32;6.63;;;;;;;14.61;40.85;101150.03;7398360;19;20048;-64
2022/04/13 09:18:44;;;;;;;10.20;6.28;;;;;;;14.70;40.93;101147.13;7396508;19;20047;-64
2022/04/13 09:21:17;;;;;;;9.50;6.38;;;;;;;14.77;40.84;101140.72;7395753;19;20033;-66
2022/04/13 09:23:45;;;;;;;9.90;6.10;;;;;;;14.90;40.98;101142.94;7397691;19;20081;-66
2022/04/13 09:26:13;;;;;;;11.07;6.30;;;;;;;14.99;40.59;101140.00;7394829;19;20039;-65
2022/04/13 09:28:41;;;;;;;10.95;7.00;;;;;;;15.10;40.46;101145.78;7397233;19;20022;-64
2022/04/13 09:31:12;;;;;;;11.85;7.03;;;;;;;15.22;40.29;101149.78;7395615;19;20352;-64
2022/04/13 09:33:40;;;;;;;9.90;5.65;;;;;;;15.33;39.90;101144.13;7395442;19;20014;-64
2022/04/13 09:36:08;;;;;;;9.65;5.75;;;;;;;15.43;39.39;101145.53;7397805;19;20040;-65
2022/04/13 09:38:37;;;;;;;11.73;5.85;;;;;;;15.52;39.44;101138.16;7397643;19;20047;-65
2022/04/13 09:41:10;;;;;;;11.00;6.30;;;;;;;15.62;39.69;101139.56;7396050;19;20018;-65
2022/04/13 09:43:38;;;;;;;12.07;6.68;;;;;;;15.71;39.64;101133.94;7397331;19;20486;-65
2022/04/13 09:46:08;;;;;;;11.77;6.70;;;;;;;15.83;39.58;101137.09;7395591;19;20018;-65
2022/04/13 09:48:38;;;;;;;10.93;6.93;;;;;;;15.95;39.18;101136.63;7396085;19;20033;-66
2022/04/13 09:51:08;;;;;;;10.27;7.13;;;;;;;16.07;39.25;101132.63;7395449;19;20014;-66
2022/04/13 09:53:45;;;;;;;11.02;6.78;;;;;;;16.17;39.39;101141.94;7397337;19;20462;-65
2022/04/13 09:56:24;;;;;;;9.52;5.75;;;;;;;16.27;38.26;101142.44;7397679;19;20489;-65
2022/04/13 09:58:52;;;;;;;10.60;6.82;;;;;;;16.37;38.97;101141.16;7398020;19;20048;-65
2022/04/13 10:01:21;;;;;;;12.55;6.43;;;;;;;16.47;38.90;101139.00;7395344;19;20035;-64
2022/04/13 10:03:57;;;;;;;14.07;6.55;;;;;;;16.58;38.40;101142.09;7394846;19;20022;-65
2022/04/13 10:06:30;;;;;;;9.93;5.85;;;;;;;16.65;38.77;101140.03;7395209;19;20039;-65
2022/04/13 10:09:02;;;;;;;10.10;6.50;;;;;;;16.75;38.51;101136.09;7395449;19;20021;-65
2022/04/13 10:11:31;;;;;;;10.85;6.68;;;;;;;16.86;38.56;101134.81;7395370;19;20015;-67
2022/04/13 10:14:03;;;;;;;10.20;5.85;;;;;;;16.99;38.05;101140.47;7397759;19;20031;-66
2022/04/13 10:16:34;;;;;;;8.73;5.60;;;;;;;17.09;37.33;101134.69;7398230;19;20031;-65
2022/04/13 10:19:06;;;;;;;9.32;6.00;;;;;;;17.22;37.05;101136.81;7396291;19;20385;-65
2022/04/13 10:21:45;;;;;;;14.00;5.93;;;;;;;17.34;36.60;101128.34;7393801;19;20022;-65
2022/04/13 10:24:26;;;;;;;8.48;5.53;;;;;;;17.49;36.43;101126.81;7396974;19;20367;-65
2022/04/13 10:27:05;;;;;;;10.10;5.80;;;;;;;17.64;36.37;101125.25;7394213;19;20014;-64
2022/04/13 10:29:35;;;;;;;9.98;6.07;;;;;;;17.76;36.44;101121.16;7395640;19;20357;-64
2022/04/13 10:32:05;;;;;;;9.10;5.90;;;;;;;17.88;36.17;101125.91;7394135;19;20025;-64
2022/04/13 10:34:37;;;;;;;13.18;5.93;;;;;;;17.99;35.97;101117.47;7393611;19;20006;-64
2022/04/13 10:37:07;;;;;;;8.35;5.53;;;;;;;18.11;35.67;101118.72;7389853;19;20349;-65
2022/04/13 10:39:35;;;;;;;9.85;6.03;;;;;;;18.24;36.00;101117.16;7393532;19;20022;-65
2022/04/13 10:42:05;;;;;;;7.55;5.55;;;;;;;18.36;35.29;101118.38;7393859;19;20022;-65
2022/04/13 10:44:36;;;;;;;9.73;6.03;;;;;;;18.49;35.52;101117.78;7395735;19;20023;-64
2022/04/13 10:47:05;;;;;;;8.95;5.53;;;;;;;18.62;35.25;101113.56;7395915;19;20025;-65
2022/04/13 10:49:49;;;;;;;9.27;5.22;;;;;;;18.76;34.09;101109.38;7394534;19;20022;-65
2022/04/13 10:52:25;;;;;;;11.27;6.88;;;;;;;18.88;34.66;101103.44;7393952;19;20021;-65
2022/04/13 10:55:02;;;;;;;13.20;6.25;;;;;;;19.01;33.11;101109.88;7393243;19;20474;-64
2022/04/13 10:57:37;;;;;;;10.18;5.57;;;;;;;19.14;34.15;101101.25;7393435;19;20023;-65
2022/04/13 11:00:08;;;;;;;7.55;5.35;;;;;;;19.26;34.05;101102.41;7394849;19;20130;-65
2022/04/13 11:02:44;;;;;;;9.10;5.55;;;;;;;19.37;33.38;101092.94;7392503;19;20018;-65
2022/04/13 11:05:15;;;;;;;8.43;5.68;;;;;;;19.49;33.64;101098.53;7394912;19;20026;-65
2022/04/13 11:07:44;;;;;;;10.38;6.03;;;;;;;19.59;33.42;101097.09;7393133;19;20019;-65
2022/04/13 11:10:19;;;;;;;11.35;5.88;;;;;;;19.69;32.53;101100.13;7393744;19;20031;-65
2022/04/13 11:12:48;;;;;;;9.07;5.57;;;;;;;19.79;32.73;101104.00;7392606;19;20019;-63
2022/04/13 11:15:18;;;;;;;8.15;5.28;;;;;;;19.90;32.68;101103.44;7391457;19;20010;-65
2022/04/13 11:17:46;;;;;;;7.97;5.47;;;;;;;20.00;32.56;101101.13;7391531;19;20015;-65
2022/04/13 11:20:22;;;;;;;9.35;5.82;;;;;;;20.11;31.37;101101.38;7391621;19;20014;-65
2022/04/13 11:23:09;;;;;;;9.93;6.22;;;;;;;20.22;31.42;101110.56;7392463;19;20018;-65
2022/04/13 11:25:53;;;;;;;9.38;6.28;;;;;;;20.33;31.22;101097.50;7394973;19;20018;-65
2022/04/13 11:28:26;;;;;;;9.68;5.95;;;;;;;20.44;31.28;101100.41;7393798;19;20011;-64
2022/04/13 11:31:02;;;;;;;7.87;5.27;;;;;;;20.57;30.87;101105.03;7392505;19;20015;-65
2022/04/13 11:33:54;;;;;;;11.23;5.95;;;;;;;20.70;30.96;101103.38;7392062;19;20425;-65
2022/04/13 11:36:27;;;;;;;8.73;6.22;;;;;;;20.83;30.72;101107.03;7393497;19;20019;-66